sensor_id;sensor_type;location;lat;lon;timestamp;pressure;altitude;pressure_sealevel;temperature;humidity
40650;BME280;26342;42.826;23.992;2023-05-23T00:01:29;95232.38;;;11.28;100.00
40650;BME280;26342;42.826;23.992;2023-05-23T00:03:56;95231.81;;;11.21;100.00
40650;BME280;26342;42.826;23.992;2023-05-23T00:06:22;95230.75;;;11.16;100.00
40650;BME280;26342;42.826;23.992;2023-05-23T00:08:47;95229.97;;;11.16;100.00
40650;BME280;26342;42.826;23.992;2023-05-23T00:11:13;95230.22;;;11.14;100.00
40650;BME280;26342;42.826;23.992;2023-05-23T00:13:41;95223.25;;;11.13;100.00
40650;BME280;26342;42.826;23.992;2023-05-23T00:16:07;95228.59;;;11.13;100.00
40650;BME280;26342;42.826;23.992;2023-05-23T00:18:37;95224.34;;;11.17;100.00
40650;BME280;26342;42.826;23.992;2023-05-23T00:21:04;95222.75;;;11.16;100.00
40650;BME280;26342;42.826;23.992;2023-05-23T00:23:29;95226.75;;;11.19;100.00
40650;BME280;26342;42.826;23.992;2023-05-23T00:25:58;95204.84;;;11.12;100.00
40650;BME280;26342;42.826;23.992;2023-05-23T00:28:24;95217.41;;;11.22;100.00
40650;BME280;26342;42.826;23.992;2023-05-23T00:30:50;95211.78;;;11.18;100.00
40650;BME280;26342;42.826;23.992;2023-05-23T00:33:16;95208.56;;;11.11;100.00
40650;BME280;26342;42.826;23.992;2023-05-23T00:35:46;95223.78;;;11.10;100.00
40650;BME280;26342;42.826;23.992;2023-05-23T00:38:11;95217.91;;;10.98;100.00
40650;BME280;26342;42.826;23.992;2023-05-23T00:40:37;95221.63;;;10.92;100.00
40650;BME280;26342;42.826;23.992;2023-05-23T00:43:02;95218.91;;;10.87;100.00
40650;BME280;26342;42.826;23.992;2023-05-23T00:45:27;95214.13;;;10.89;100.00
40650;BME280;26342;42.826;23.992;2023-05-23T00:47:53;95221.34;;;10.94;100.00
40650;BME280;26342;42.826;23.992;2023-05-23T00:50:19;95217.06;;;10.93;100.00
40650;BME280;26342;42.826;23.992;2023-05-23T00:52:47;95217.34;;;10.91;100.00
40650;BME280;26342;42.826;23.992;2023-05-23T00:55:12;95217.06;;;10.93;100.00
40650;BME280;26342;42.826;23.992;2023-05-23T00:57:39;95212.50;;;10.88;100.00
40650;BME280;26342;42.826;23.992;2023-05-23T01:00:11;95220.81;;;10.92;100.00
40650;BME280;26342;42.826;23.992;2023-05-23T01:02:45;95225.59;;;10.89;100.00
40650;BME280;26342;42.826;23.992;2023-05-23T01:05:15;95221.06;;;10.85;100.00
40650;BME280;26342;42.826;23.992;2023-05-23T01:07:47;95210.09;;;10.76;100.00
40650;BME280;26342;42.826;23.992;2023-05-23T01:10:14;95212.75;;;10.76;100.00
40650;BME280;26342;42.826;23.992;2023-05-23T01:15:14;95195.66;;;10.67;100.00
40650;BME280;26342;42.826;23.992;2023-05-23T01:18:17;95209.00;;;10.77;100.00
40650;BME280;26342;42.826;23.992;2023-05-23T01:21:16;95208.19;;;10.72;100.00
40650;BME280;26342;42.826;23.992;2023-05-23T01:29:12;95210.28;;;10.59;100.00
40650;BME280;26342;42.826;23.992;2023-05-23T01:31:42;95210.53;;;10.58;100.00
40650;BME280;26342;42.826;23.992;2023-05-23T01:34:11;95199.56;;;10.49;100.00
40650;BME280;26342;42.826;23.992;2023-05-23T01:36:41;95203.81;;;10.50;100.00
40650;BME280;26342;42.826;23.992;2023-05-23T01:39:07;95198.22;;;10.47;100.00
40650;BME280;26342;42.826;23.992;2023-05-23T01:41:32;95209.16;;;10.50;100.00
40650;BME280;26342;42.826;23.992;2023-05-23T01:43:58;95197.44;;;10.51;100.00
40650;BME280;26342;42.826;23.992;2023-05-23T01:46:24;95201.97;;;10.51;100.00
40650;BME280;26342;42.826;23.992;2023-05-23T01:48:52;95200.63;;;10.48;100.00
40650;BME280;26342;42.826;23.992;2023-05-23T01:51:20;95203.50;;;10.42;100.00
40650;BME280;26342;42.826;23.992;2023-05-23T01:53:46;95205.34;;;10.31;100.00
40650;BME280;26342;42.826;23.992;2023-05-23T01:56:12;95195.72;;;10.30;100.00
40650;BME280;26342;42.826;23.992;2023-05-23T01:58:38;95197.28;;;10.26;100.00
40650;BME280;26342;42.826;23.992;2023-05-23T02:01:03;95206.41;;;10.30;100.00
40650;BME280;26342;42.826;23.992;2023-05-23T02:03:29;95203.16;;;10.23;100.00
40650;BME280;26342;42.826;23.992;2023-05-23T02:05:55;95197.28;;;10.26;100.00
40650;BME280;26342;42.826;23.992;2023-05-23T02:08:20;95198.19;;;10.37;100.00
40650;BME280;26342;42.826;23.992;2023-05-23T02:10:45;95198.41;;;10.30;100.00
40650;BME280;26342;42.826;23.992;2023-05-23T02:13:11;95208.00;;;10.31;100.00
40650;BME280;26342;42.826;23.992;2023-05-23T02:15:36;95204.19;;;10.22;100.00
40650;BME280;26342;42.826;23.992;2023-05-23T02:18:02;95211.16;;;10.23;100.00
40650;BME280;26342;42.826;23.992;2023-05-23T02:20:28;95201.84;;;10.25;100.00
40650;BME280;26342;42.826;23.992;2023-05-23T02:22:54;95202.59;;;10.21;100.00
40650;BME280;26342;42.826;23.992;2023-05-23T02:25:19;95212.75;;;10.24;100.00
40650;BME280;26342;42.826;23.992;2023-05-23T02:27:44;95210.28;;;10.12;100.00
40650;BME280;26342;42.826;23.992;2023-05-23T02:30:10;95198.22;;;10.04;100.00
40650;BME280;26342;42.826;23.992;2023-05-23T02:32:35;95208.09;;;10.09;100.00
40650;BME280;26342;42.826;23.992;2023-05-23T02:35:02;95203.88;;;10.13;100.00
40650;BME280;26342;42.826;23.992;2023-05-23T02:37:27;95193.13;;;10.03;100.00
40650;BME280;26342;42.826;23.992;2023-05-23T02:39:52;95203.31;;;10.06;100.00
40650;BME280;26342;42.826;23.992;2023-05-23T02:42:18;95200.38;;;10.07;100.00
40650;BME280;26342;42.826;23.992;2023-05-23T02:44:43;95190.72;;;10.01;100.00
40650;BME280;26342;42.826;23.992;2023-05-23T02:47:09;95204.63;;;10.03;100.00
40650;BME280;26342;42.826;23.992;2023-05-23T02:49:34;95205.69;;;10.07;100.00
40650;BME280;26342;42.826;23.992;2023-05-23T02:52:00;95202.75;;;10.04;100.00
40650;BME280;26342;42.826;23.992;2023-05-23T02:54:25;95197.16;;;10.05;100.00
40650;BME280;26342;42.826;23.992;2023-05-23T02:56:51;95195.78;;;10.03;100.00
40650;BME280;26342;42.826;23.992;2023-05-23T02:59:19;95192.09;;;10.04;100.00
40650;BME280;26342;42.826;23.992;2023-05-23T03:01:46;95184.38;;;10.07;100.00
40650;BME280;26342;42.826;23.992;2023-05-23T03:04:11;95183.03;;;10.10;100.00
40650;BME280;26342;42.826;23.992;2023-05-23T03:06:38;95188.63;;;10.08;100.00
40650;BME280;26342;42.826;23.992;2023-05-23T03:09:04;95197.75;;;10.13;100.00
40650;BME280;26342;42.826;23.992;2023-05-23T03:11:29;95193.72;;;10.10;100.00
40650;BME280;26342;42.826;23.992;2023-05-23T03:13:55;95196.38;;;10.10;100.00
40650;BME280;26342;42.826;23.992;2023-05-23T03:16:23;95201.38;;;10.01;100.00
40650;BME280;26342;42.826;23.992;2023-05-23T03:18:49;95212.63;;;10.03;100.00
40650;BME280;26342;42.826;23.992;2023-05-23T03:21:14;95201.59;;;9.90;100.00
40650;BME280;26342;42.826;23.992;2023-05-23T03:23:40;95199.22;;;9.93;100.00
40650;BME280;26342;42.826;23.992;2023-05-23T03:26:06;95186.41;;;9.90;100.00
40650;BME280;26342;42.826;23.992;2023-05-23T03:28:31;95199.50;;;9.97;100.00
40650;BME280;26342;42.826;23.992;2023-05-23T03:30:57;95206.72;;;10.01;100.00
40650;BME280;26342;42.826;23.992;2023-05-23T03:33:23;95213.16;;;10.05;100.00
40650;BME280;26342;42.826;23.992;2023-05-23T03:35:49;95215.78;;;10.00;100.00
40650;BME280;26342;42.826;23.992;2023-05-23T03:38:14;95218.19;;;10.02;100.00
40650;BME280;26342;42.826;23.992;2023-05-23T03:40:40;95215.47;;;9.92;100.00
40650;BME280;26342;42.826;23.992;2023-05-23T03:43:06;95223.78;;;10.00;100.00
40650;BME280;26342;42.826;23.992;2023-05-23T03:45:33;95223.53;;;10.02;100.00
40650;BME280;26342;42.826;23.992;2023-05-23T03:47:59;95219.78;;;10.03;100.00
40650;BME280;26342;42.826;23.992;2023-05-23T03:50:25;95215.50;;;9.97;100.00
40650;BME280;26342;42.826;23.992;2023-05-23T03:52:51;95228.63;;;10.08;100.00
40650;BME280;26342;42.826;23.992;2023-05-23T03:55:16;95198.44;;;9.98;100.00
40650;BME280;26342;42.826;23.992;2023-05-23T03:57:47;95218.50;;;10.05;100.00
40650;BME280;26342;42.826;23.992;2023-05-23T04:00:13;95214.13;;;9.94;100.00
40650;BME280;26342;42.826;23.992;2023-05-23T04:02:38;95221.91;;;10.01;100.00
40650;BME280;26342;42.826;23.992;2023-05-23T04:05:05;95217.06;;;9.93;100.00
40650;BME280;26342;42.826;23.992;2023-05-23T04:07:31;95234.16;;;9.97;100.00
40650;BME280;26342;42.826;23.992;2023-05-23T04:09:59;95226.91;;;9.92;100.00
40650;BME280;26342;42.826;23.992;2023-05-23T04:12:25;95240.28;;;9.97;100.00
40650;BME280;26342;42.826;23.992;2023-05-23T04:14:51;95218.06;;;9.87;100.00
40650;BME280;26342;42.826;23.992;2023-05-23T04:17:16;95223.72;;;9.90;100.00
40650;BME280;26342;42.826;23.992;2023-05-23T04:19:42;95229.69;;;10.07;100.00
40650;BME280;26342;42.826;23.992;2023-05-23T04:22:08;95230.81;;;10.17;100.00
40650;BME280;26342;42.826;23.992;2023-05-23T04:24:34;95218.28;;;10.17;100.00
40650;BME280;26342;42.826;23.992;2023-05-23T04:26:59;95228.81;;;10.29;100.00
40650;BME280;26342;42.826;23.992;2023-05-23T04:29:25;95224.28;;;10.34;100.00
40650;BME280;26342;42.826;23.992;2023-05-23T04:31:52;95213.06;;;10.32;100.00
40650;BME280;26342;42.826;23.992;2023-05-23T04:34:19;95229.97;;;10.48;100.00
40650;BME280;26342;42.826;23.992;2023-05-23T04:36:46;95227.91;;;10.60;100.00
40650;BME280;26342;42.826;23.992;2023-05-23T04:39:12;95228.69;;;10.66;100.00
40650;BME280;26342;42.826;23.992;2023-05-23T04:41:38;95225.53;;;10.74;100.00
40650;BME280;26342;42.826;23.992;2023-05-23T04:44:04;95216.53;;;10.85;100.00
40650;BME280;26342;42.826;23.992;2023-05-23T04:46:30;95224.56;;;10.96;100.00
40650;BME280;26342;42.826;23.992;2023-05-23T04:48:56;95224.03;;;10.94;100.00
40650;BME280;26342;42.826;23.992;2023-05-23T04:51:23;95213.88;;;10.96;100.00
40650;BME280;26342;42.826;23.992;2023-05-23T04:53:49;95222.69;;;10.91;100.00
40650;BME280;26342;42.826;23.992;2023-05-23T04:56:15;95221.63;;;10.97;100.00
40650;BME280;26342;42.826;23.992;2023-05-23T04:58:42;95218.47;;;11.10;100.00
40650;BME280;26342;42.826;23.992;2023-05-23T05:01:09;95225.97;;;11.29;100.00
40650;BME280;26342;42.826;23.992;2023-05-23T05:03:36;95217.69;;;11.35;100.00
40650;BME280;26342;42.826;23.992;2023-05-23T05:06:02;95220.91;;;11.53;100.00
40650;BME280;26342;42.826;23.992;2023-05-23T05:08:28;95214.81;;;11.62;100.00
40650;BME280;26342;42.826;23.992;2023-05-23T05:10:54;95206.50;;;11.74;100.00
40650;BME280;26342;42.826;23.992;2023-05-23T05:13:20;95204.66;;;11.90;100.00
40650;BME280;26342;42.826;23.992;2023-05-23T05:15:45;95211.88;;;12.05;100.00
40650;BME280;26342;42.826;23.992;2023-05-23T05:18:12;95218.00;;;12.25;100.00
40650;BME280;26342;42.826;23.992;2023-05-23T05:20:37;95203.78;;;12.35;100.00
40650;BME280;26342;42.826;23.992;2023-05-23T05:23:03;95208.03;;;12.51;100.00
40650;BME280;26342;42.826;23.992;2023-05-23T05:25:28;95208.50;;;12.69;100.00
40650;BME280;26342;42.826;23.992;2023-05-23T05:27:59;95206.31;;;12.81;100.00
40650;BME280;26342;42.826;23.992;2023-05-23T05:30:26;95201.41;;;13.03;100.00
40650;BME280;26342;42.826;23.992;2023-05-23T05:32:51;95213.13;;;13.12;100.00
40650;BME280;26342;42.826;23.992;2023-05-23T05:35:17;95203.91;;;13.34;100.00
40650;BME280;26342;42.826;23.992;2023-05-23T05:37:42;95205.16;;;13.52;100.00
40650;BME280;26342;42.826;23.992;2023-05-23T05:40:08;95212.81;;;13.68;100.00
40650;BME280;26342;42.826;23.992;2023-05-23T05:42:34;95208.75;;;13.71;100.00
40650;BME280;26342;42.826;23.992;2023-05-23T05:44:59;95217.78;;;13.80;100.00
40650;BME280;26342;42.826;23.992;2023-05-23T05:47:24;95206.47;;;13.88;100.00
40650;BME280;26342;42.826;23.992;2023-05-23T05:49:50;95201.81;;;13.99;100.00
40650;BME280;26342;42.826;23.992;2023-05-23T05:52:15;95194.66;;;14.18;100.00
40650;BME280;26342;42.826;23.992;2023-05-23T05:54:41;95204.91;;;14.40;100.00
40650;BME280;26342;42.826;23.992;2023-05-23T05:57:06;95211.91;;;14.65;100.00
40650;BME280;26342;42.826;23.992;2023-05-23T05:59:32;95207.81;;;14.73;100.00
40650;BME280;26342;42.826;23.992;2023-05-23T06:01:57;95211.78;;;14.99;100.00
40650;BME280;26342;42.826;23.992;2023-05-23T06:04:23;95216.41;;;15.18;100.00
40650;BME280;26342;42.826;23.992;2023-05-23T06:06:48;95208.31;;;15.36;100.00
40650;BME280;26342;42.826;23.992;2023-05-23T06:09:14;95208.25;;;15.42;100.00
40650;BME280;26342;42.826;23.992;2023-05-23T06:11:39;95217.88;;;15.67;100.00
40650;BME280;26342;42.826;23.992;2023-05-23T06:14:06;95207.69;;;15.82;100.00
40650;BME280;26342;42.826;23.992;2023-05-23T06:16:31;95212.63;;;16.08;100.00
40650;BME280;26342;42.826;23.992;2023-05-23T06:18:57;95209.28;;;16.16;100.00
40650;BME280;26342;42.826;23.992;2023-05-23T06:21:22;95206.31;;;16.31;100.00
40650;BME280;26342;42.826;23.992;2023-05-23T06:23:47;95212.53;;;16.45;100.00
40650;BME280;26342;42.826;23.992;2023-05-23T06:26:13;95214.31;;;16.64;100.00
40650;BME280;26342;42.826;23.992;2023-05-23T06:28:38;95210.09;;;16.77;100.00
40650;BME280;26342;42.826;23.992;2023-05-23T06:31:04;95201.88;;;16.82;100.00
40650;BME280;26342;42.826;23.992;2023-05-23T06:33:30;95217.34;;;16.90;100.00
40650;BME280;26342;42.826;23.992;2023-05-23T06:35:56;95216.16;;;17.10;100.00
40650;BME280;26342;42.826;23.992;2023-05-23T06:38:21;95221.00;;;17.35;100.00
40650;BME280;26342;42.826;23.992;2023-05-23T06:40:47;95218.91;;;17.46;100.00
40650;BME280;26342;42.826;23.992;2023-05-23T06:43:12;95212.63;;;17.73;100.00
40650;BME280;26342;42.826;23.992;2023-05-23T06:45:37;95215.34;;;17.95;100.00
40650;BME280;26342;42.826;23.992;2023-05-23T06:48:04;95224.25;;;18.18;100.00
40650;BME280;26342;42.826;23.992;2023-05-23T06:50:29;95215.44;;;18.35;100.00
40650;BME280;26342;42.826;23.992;2023-05-23T06:52:55;95201.84;;;18.49;100.00
40650;BME280;26342;42.826;23.992;2023-05-23T06:55:22;95206.25;;;18.67;100.00
40650;BME280;26342;42.826;23.992;2023-05-23T06:57:47;95204.69;;;18.75;100.00
40650;BME280;26342;42.826;23.992;2023-05-23T07:00:16;95203.97;;;18.91;100.00
40650;BME280;26342;42.826;23.992;2023-05-23T07:02:42;95199.72;;;19.08;100.00
40650;BME280;26342;42.826;23.992;2023-05-23T07:05:09;95205.59;;;19.18;100.00
40650;BME280;26342;42.826;23.992;2023-05-23T07:07:34;95210.41;;;19.30;100.00
40650;BME280;26342;42.826;23.992;2023-05-23T07:10:00;95205.97;;;19.43;100.00
40650;BME280;26342;42.826;23.992;2023-05-23T07:12:25;95208.06;;;19.55;100.00
40650;BME280;26342;42.826;23.992;2023-05-23T07:14:50;95207.16;;;19.76;100.00
40650;BME280;26342;42.826;23.992;2023-05-23T07:17:16;95195.06;;;19.91;100.00
40650;BME280;26342;42.826;23.992;2023-05-23T07:19:41;95197.72;;;20.08;100.00
40650;BME280;26342;42.826;23.992;2023-05-23T07:22:06;95193.22;;;20.21;100.00
40650;BME280;26342;42.826;23.992;2023-05-23T07:24:32;95195.31;;;20.24;100.00
40650;BME280;26342;42.826;23.992;2023-05-23T07:26:57;95185.25;;;20.33;100.00
40650;BME280;26342;42.826;23.992;2023-05-23T07:29:23;95188.41;;;20.53;100.00
40650;BME280;26342;42.826;23.992;2023-05-23T07:31:48;95180.88;;;20.58;100.00
40650;BME280;26342;42.826;23.992;2023-05-23T07:34:13;95181.81;;;20.71;100.00
40650;BME280;26342;42.826;23.992;2023-05-23T07:36:39;95185.06;;;20.94;100.00
40650;BME280;26342;42.826;23.992;2023-05-23T07:39:05;95180.84;;;21.05;100.00
40650;BME280;26342;42.826;23.992;2023-05-23T07:41:31;95189.50;;;20.99;100.00
40650;BME280;26342;42.826;23.992;2023-05-23T07:43:56;95179.69;;;20.85;100.00
40650;BME280;26342;42.826;23.992;2023-05-23T07:46:22;95187.91;;;20.98;100.00
40650;BME280;26342;42.826;23.992;2023-05-23T07:48:47;95170.94;;;21.09;100.00
40650;BME280;26342;42.826;23.992;2023-05-23T07:51:13;95181.41;;;20.90;100.00
40650;BME280;26342;42.826;23.992;2023-05-23T07:53:38;95186.16;;;20.93;100.00
40650;BME280;26342;42.826;23.992;2023-05-23T07:56:05;95171.56;;;21.06;100.00
40650;BME280;26342;42.826;23.992;2023-05-23T07:58:30;95179.72;;;21.06;100.00
40650;BME280;26342;42.826;23.992;2023-05-23T08:00:56;95181.56;;;20.94;100.00
40650;BME280;26342;42.826;23.992;2023-05-23T08:03:22;95174.91;;;21.12;100.00
40650;BME280;26342;42.826;23.992;2023-05-23T08:05:47;95177.09;;;20.89;100.00
40650;BME280;26342;42.826;23.992;2023-05-23T08:08:13;95174.72;;;20.87;100.00
40650;BME280;26342;42.826;23.992;2023-05-23T08:10:38;95176.78;;;20.44;100.00
40650;BME280;26342;42.826;23.992;2023-05-23T08:13:04;95174.50;;;20.63;100.00
40650;BME280;26342;42.826;23.992;2023-05-23T08:15:31;95178.13;;;20.67;100.00
40650;BME280;26342;42.826;23.992;2023-05-23T08:17:58;95166.56;;;20.49;100.00
40650;BME280;26342;42.826;23.992;2023-05-23T08:20:25;95170.81;;;20.68;100.00
40650;BME280;26342;42.826;23.992;2023-05-23T08:22:59;95169.63;;;20.86;100.00
40650;BME280;26342;42.826;23.992;2023-05-23T08:25:25;95172.81;;;21.09;100.00
40650;BME280;26342;42.826;23.992;2023-05-23T08:27:57;95171.00;;;21.22;100.00
40650;BME280;26342;42.826;23.992;2023-05-23T08:30:24;95164.97;;;21.45;100.00
40650;BME280;26342;42.826;23.992;2023-05-23T08:32:51;95170.00;;;21.77;100.00
40650;BME280;26342;42.826;23.992;2023-05-23T08:35:17;95162.75;;;22.01;100.00
40650;BME280;26342;42.826;23.992;2023-05-23T08:37:42;95172.03;;;22.21;100.00
40650;BME280;26342;42.826;23.992;2023-05-23T08:40:13;95163.47;;;22.56;100.00
40650;BME280;26342;42.826;23.992;2023-05-23T08:42:39;95163.81;;;22.67;99.17
40650;BME280;26342;42.826;23.992;2023-05-23T08:45:05;95169.59;;;22.53;92.21
40650;BME280;26342;42.826;23.992;2023-05-23T08:47:32;95168.22;;;22.59;88.49
40650;BME280;26342;42.826;23.992;2023-05-23T08:50:04;95154.06;;;22.66;93.28
40650;BME280;26342;42.826;23.992;2023-05-23T08:52:32;95165.09;;;23.06;91.29
40650;BME280;26342;42.826;23.992;2023-05-23T08:55:02;95160.34;;;23.27;85.95
40650;BME280;26342;42.826;23.992;2023-05-23T08:57:27;95160.66;;;23.38;81.21
40650;BME280;26342;42.826;23.992;2023-05-23T08:59:54;95161.47;;;23.38;82.67
40650;BME280;26342;42.826;23.992;2023-05-23T09:02:21;95166.09;;;23.50;80.04
40650;BME280;26342;42.826;23.992;2023-05-23T09:04:48;95158.00;;;23.54;75.83
40650;BME280;26342;42.826;23.992;2023-05-23T09:07:14;95162.47;;;23.34;81.07
40650;BME280;26342;42.826;23.992;2023-05-23T09:09:41;95154.22;;;23.30;84.76
40650;BME280;26342;42.826;23.992;2023-05-23T09:12:06;95157.16;;;23.13;79.53
40650;BME280;26342;42.826;23.992;2023-05-23T09:14:32;95154.91;;;22.91;73.40
40650;BME280;26342;42.826;23.992;2023-05-23T09:17:00;95152.97;;;23.03;74.98
40650;BME280;26342;42.826;23.992;2023-05-23T09:19:27;95142.66;;;23.09;78.55
40650;BME280;26342;42.826;23.992;2023-05-23T09:21:53;95155.59;;;23.24;78.27
40650;BME280;26342;42.826;23.992;2023-05-23T09:24:19;95149.09;;;23.29;75.95
40650;BME280;26342;42.826;23.992;2023-05-23T09:26:48;95152.69;;;23.45;77.74
40650;BME280;26342;42.826;23.992;2023-05-23T09:29:18;95159.19;;;23.40;69.39
40650;BME280;26342;42.826;23.992;2023-05-23T09:31:44;95153.56;;;23.09;74.16
40650;BME280;26342;42.826;23.992;2023-05-23T09:34:09;95152.88;;;22.88;73.54
40650;BME280;26342;42.826;23.992;2023-05-23T09:36:35;95156.66;;;22.50;77.10
40650;BME280;26342;42.826;23.992;2023-05-23T09:39:03;95165.00;;;22.20;74.85
40650;BME280;26342;42.826;23.992;2023-05-23T09:41:33;95167.56;;;22.17;76.09
40650;BME280;26342;42.826;23.992;2023-05-23T09:44:04;95164.31;;;22.23;73.69
40650;BME280;26342;42.826;23.992;2023-05-23T09:46:30;95150.84;;;22.27;70.39
40650;BME280;26342;42.826;23.992;2023-05-23T09:48:55;95151.56;;;22.36;70.16
40650;BME280;26342;42.826;23.992;2023-05-23T09:51:22;95153.50;;;22.48;69.87
40650;BME280;26342;42.826;23.992;2023-05-23T09:53:49;95152.50;;;22.77;72.30
40650;BME280;26342;42.826;23.992;2023-05-23T09:56:18;95153.22;;;22.98;77.54
40650;BME280;26342;42.826;23.992;2023-05-23T09:58:48;95158.22;;;23.08;70.87
40650;BME280;26342;42.826;23.992;2023-05-23T10:01:15;95155.25;;;23.13;71.93
40650;BME280;26342;42.826;23.992;2023-05-23T10:03:51;95147.41;;;23.12;68.43
40650;BME280;26342;42.826;23.992;2023-05-23T10:06:30;95134.69;;;23.28;69.23
40650;BME280;26342;42.826;23.992;2023-05-23T10:09:00;95139.06;;;23.57;69.99
40650;BME280;26342;42.826;23.992;2023-05-23T10:14:04;95135.66;;;23.60;59.34
40650;BME280;26342;42.826;23.992;2023-05-23T10:16:54;95136.13;;;23.50;58.55
40650;BME280;26342;42.826;23.992;2023-05-23T10:22:07;95138.25;;;23.69;58.93
40650;BME280;26342;42.826;23.992;2023-05-23T10:24:35;95128.50;;;23.56;54.95
40650;BME280;26342;42.826;23.992;2023-05-23T10:27:02;95140.00;;;23.49;58.74
40650;BME280;26342;42.826;23.992;2023-05-23T10:29:28;95128.94;;;23.58;56.70
40650;BME280;26342;42.826;23.992;2023-05-23T10:31:54;95126.97;;;23.43;60.61
40650;BME280;26342;42.826;23.992;2023-05-23T10:37:06;95134.03;;;22.70;58.77
40650;BME280;26342;42.826;23.992;2023-05-23T10:39:53;95125.53;;;22.96;57.00
40650;BME280;26342;42.826;23.992;2023-05-23T10:45:13;95127.78;;;23.31;58.78
40650;BME280;26342;42.826;23.992;2023-05-23T10:47:39;95126.16;;;23.54;60.63
40650;BME280;26342;42.826;23.992;2023-05-23T10:50:05;95125.88;;;23.59;58.34
40650;BME280;26342;42.826;23.992;2023-05-23T10:52:38;95115.34;;;23.58;55.55
40650;BME280;26342;42.826;23.992;2023-05-23T10:55:12;95120.50;;;23.47;56.13
40650;BME280;26342;42.826;23.992;2023-05-23T10:57:39;95126.34;;;23.61;55.14
40650;BME280;26342;42.826;23.992;2023-05-23T11:00:12;95121.56;;;23.58;57.03
40650;BME280;26342;42.826;23.992;2023-05-23T11:02:46;95120.59;;;23.63;57.35
40650;BME280;26342;42.826;23.992;2023-05-23T11:08:11;95114.47;;;23.82;55.39
40650;BME280;26342;42.826;23.992;2023-05-23T11:13:20;95122.16;;;23.64;55.33
40650;BME280;26342;42.826;23.992;2023-05-23T11:15:46;95125.09;;;23.71;55.75
40650;BME280;26342;42.826;23.992;2023-05-23T11:18:22;95136.13;;;23.50;56.31
40650;BME280;26342;42.826;23.992;2023-05-23T11:20:50;95133.59;;;23.17;57.06
40650;BME280;26342;42.826;23.992;2023-05-23T11:23:16;95127.47;;;22.96;57.83
40650;BME280;26342;42.826;23.992;2023-05-23T11:25:50;95141.97;;;22.75;60.25
40650;BME280;26342;42.826;23.992;2023-05-23T11:28:16;95142.28;;;22.37;61.19
40650;BME280;26342;42.826;23.992;2023-05-23T11:30:42;95140.16;;;22.10;63.15
40650;BME280;26342;42.826;23.992;2023-05-23T11:33:12;95140.50;;;21.87;64.56
40650;BME280;26342;42.826;23.992;2023-05-23T11:35:42;95139.66;;;21.74;68.03
40650;BME280;26342;42.826;23.992;2023-05-23T11:38:09;95140.00;;;21.73;69.83
40650;BME280;26342;42.826;23.992;2023-05-23T11:40:37;95124.03;;;21.71;63.61
40650;BME280;26342;42.826;23.992;2023-05-23T11:43:04;95128.03;;;21.86;67.87
40650;BME280;26342;42.826;23.992;2023-05-23T11:45:31;95125.91;;;22.13;66.87
40650;BME280;26342;42.826;23.992;2023-05-23T11:47:57;95127.69;;;22.09;62.49
40650;BME280;26342;42.826;23.992;2023-05-23T11:50:22;95116.19;;;22.24;60.17
40650;BME280;26342;42.826;23.992;2023-05-23T11:52:53;95111.47;;;22.45;59.10
40650;BME280;26342;42.826;23.992;2023-05-23T11:55:20;95112.03;;;22.63;66.23
40650;BME280;26342;42.826;23.992;2023-05-23T11:57:46;95102.50;;;22.81;59.51
40650;BME280;26342;42.826;23.992;2023-05-23T12:00:12;95096.53;;;23.00;55.98
40650;BME280;26342;42.826;23.992;2023-05-23T12:02:42;95094.25;;;23.15;55.53
40650;BME280;26342;42.826;23.992;2023-05-23T12:05:09;95092.31;;;23.15;54.35
40650;BME280;26342;42.826;23.992;2023-05-23T12:07:35;95094.00;;;23.20;57.06
40650;BME280;26342;42.826;23.992;2023-05-23T12:10:04;95080.03;;;23.21;56.59
40650;BME280;26342;42.826;23.992;2023-05-23T12:12:31;95085.34;;;23.30;56.02
40650;BME280;26342;42.826;23.992;2023-05-23T12:14:56;95086.75;;;23.24;57.35
40650;BME280;26342;42.826;23.992;2023-05-23T12:17:22;95078.81;;;23.06;55.25
40650;BME280;26342;42.826;23.992;2023-05-23T12:19:48;95085.88;;;23.07;58.81
40650;BME280;26342;42.826;23.992;2023-05-23T12:22:13;95084.38;;;23.10;57.12
40650;BME280;26342;42.826;23.992;2023-05-23T12:24:44;95084.97;;;22.79;55.15
40650;BME280;26342;42.826;23.992;2023-05-23T12:27:10;95081.56;;;22.70;55.29
40650;BME280;26342;42.826;23.992;2023-05-23T12:29:36;95075.09;;;22.74;54.48
40650;BME280;26342;42.826;23.992;2023-05-23T12:32:05;95073.72;;;22.80;53.92
40650;BME280;26342;42.826;23.992;2023-05-23T12:34:31;95073.63;;;22.77;55.16
40650;BME280;26342;42.826;23.992;2023-05-23T12:36:58;95075.66;;;22.80;56.34
40650;BME280;26342;42.826;23.992;2023-05-23T12:39:25;95073.84;;;22.47;54.30
40650;BME280;26342;42.826;23.992;2023-05-23T12:41:51;95072.00;;;22.27;58.89
40650;BME280;26342;42.826;23.992;2023-05-23T12:44:17;95070.66;;;22.21;57.89
40650;BME280;26342;42.826;23.992;2023-05-23T12:46:42;95074.31;;;22.37;57.77
40650;BME280;26342;42.826;23.992;2023-05-23T12:49:08;95067.28;;;22.48;55.44
40650;BME280;26342;42.826;23.992;2023-05-23T12:51:34;95068.75;;;22.58;56.15
40650;BME280;26342;42.826;23.992;2023-05-23T12:54:00;95058.66;;;22.58;54.52
40650;BME280;26342;42.826;23.992;2023-05-23T12:56:26;95045.84;;;22.59;53.71
40650;BME280;26342;42.826;23.992;2023-05-23T12:58:51;95048.34;;;22.64;54.02
40650;BME280;26342;42.826;23.992;2023-05-23T13:01:19;95045.50;;;22.73;55.50
40650;BME280;26342;42.826;23.992;2023-05-23T13:03:44;95036.91;;;22.83;55.26
40650;BME280;26342;42.826;23.992;2023-05-23T13:06:10;95029.84;;;22.82;54.96